Terminal Aerodrome Forecast
Issued by NWS

Home | Current Version | Previous Version | Text Only | Print | Product List | Glossary On
Versions: 1 2 3 4 5 6 7 8 9 10 11 12 13 14 15 16 17 18 19 20
000
FTUS46 KSGX 272334
TAFCRQ
TAF
KCRQ 272334Z 2800/2824 24007KT P6SM SKC
     FM280200 VRB05KT P6SM SCT015
     FM280600 VRB05KT P6SM OVC012
     FM281600 VRB06KT P6SM SCT015
     FM281900 24009KT P6SM SKC=

USA.gov is the U.S. government's official web portal to all federal, state and local government web resources and services.